sensor_id;sensor_type;location;lat;lon;timestamp;temperature;humidity
12119;DHT22;6123;48.864;9.200;2022-08-11T00:01:14;19.50;84.70
12119;DHT22;6123;48.864;9.200;2022-08-11T00:03:56;19.50;85.00
12119;DHT22;6123;48.864;9.200;2022-08-11T00:08:54;19.30;86.60
12119;DHT22;6123;48.864;9.200;2022-08-11T00:11:21;19.30;87.00
12119;DHT22;6123;48.864;9.200;2022-08-11T00:13:48;19.20;87.30
12119;DHT22;6123;48.864;9.200;2022-08-11T00:16:20;19.10;88.10
12119;DHT22;6123;48.864;9.200;2022-08-11T00:18:55;19.00;88.50
12119;DHT22;6123;48.864;9.200;2022-08-11T00:21:25;19.30;89.30
12119;DHT22;6123;48.864;9.200;2022-08-11T00:23:59;19.00;89.50
12119;DHT22;6123;48.864;9.200;2022-08-11T00:26:27;18.90;90.10
12119;DHT22;6123;48.864;9.200;2022-08-11T00:28:55;18.90;90.00
12119;DHT22;6123;48.864;9.200;2022-08-11T00:31:30;19.00;90.40
12119;DHT22;6123;48.864;9.200;2022-08-11T00:33:58;18.80;90.40
12119;DHT22;6123;48.864;9.200;2022-08-11T00:36:37;18.70;90.70
12119;DHT22;6123;48.864;9.200;2022-08-11T00:39:04;18.60;91.70
12119;DHT22;6123;48.864;9.200;2022-08-11T00:55:06;18.50;92.90
12119;DHT22;6123;48.864;9.200;2022-08-11T01:06:40;18.50;93.50
12119;DHT22;6123;48.864;9.200;2022-08-11T01:23:18;18.50;94.40
12119;DHT22;6123;48.864;9.200;2022-08-11T01:54:27;17.90;98.90
12119;DHT22;6123;48.864;9.200;2022-08-11T01:59:49;18.00;98.40
12119;DHT22;6123;48.864;9.200;2022-08-11T02:08:33;17.40;99.90
12119;DHT22;6123;48.864;9.200;2022-08-11T02:11:31;17.50;99.90
12119;DHT22;6123;48.864;9.200;2022-08-11T02:14:25;17.60;99.90
12119;DHT22;6123;48.864;9.200;2022-08-11T02:28:48;17.40;99.90
12119;DHT22;6123;48.864;9.200;2022-08-11T02:37:10;17.30;99.90
12119;DHT22;6123;48.864;9.200;2022-08-11T02:53:48;17.20;99.90
12119;DHT22;6123;48.864;9.200;2022-08-11T02:56:13;17.20;99.90
12119;DHT22;6123;48.864;9.200;2022-08-11T03:07:50;17.20;99.90
12119;DHT22;6123;48.864;9.200;2022-08-11T03:10:27;17.30;99.90
12119;DHT22;6123;48.864;9.200;2022-08-11T03:13:21;17.20;99.90
12119;DHT22;6123;48.864;9.200;2022-08-11T03:16:36;17.20;99.90
12119;DHT22;6123;48.864;9.200;2022-08-11T03:19:23;17.10;99.90
12119;DHT22;6123;48.864;9.200;2022-08-11T03:24:48;17.00;99.90
12119;DHT22;6123;48.864;9.200;2022-08-11T03:35:39;17.00;99.90
12119;DHT22;6123;48.864;9.200;2022-08-11T03:38:13;17.00;99.90
12119;DHT22;6123;48.864;9.200;2022-08-11T03:44:00;17.00;99.90
12119;DHT22;6123;48.864;9.200;2022-08-11T03:50:00;17.00;99.90
12119;DHT22;6123;48.864;9.200;2022-08-11T04:07:08;16.60;99.90
12119;DHT22;6123;48.864;9.200;2022-08-11T04:40:55;16.70;99.90
12119;DHT22;6123;48.864;9.200;2022-08-11T05:02:27;16.80;99.90
12119;DHT22;6123;48.864;9.200;2022-08-11T05:12:52;17.00;99.90
12119;DHT22;6123;48.864;9.200;2022-08-11T05:15:27;17.00;99.90
12119;DHT22;6123;48.864;9.200;2022-08-11T05:18:21;17.10;99.90
12119;DHT22;6123;48.864;9.200;2022-08-11T05:21:11;17.10;99.90
12119;DHT22;6123;48.864;9.200;2022-08-11T05:27:16;17.30;99.90
12119;DHT22;6123;48.864;9.200;2022-08-11T05:30:05;17.50;99.90
12119;DHT22;6123;48.864;9.200;2022-08-11T05:33:08;17.50;99.90
12119;DHT22;6123;48.864;9.200;2022-08-11T05:36:11;17.70;99.90
12119;DHT22;6123;48.864;9.200;2022-08-11T05:38:51;17.70;99.90
12119;DHT22;6123;48.864;9.200;2022-08-11T05:41:38;17.80;99.90
12119;DHT22;6123;48.864;9.200;2022-08-11T05:44:23;18.20;99.90
12119;DHT22;6123;48.864;9.200;2022-08-11T05:47:10;18.50;99.90
12119;DHT22;6123;48.864;9.200;2022-08-11T05:49:54;18.70;99.90
12119;DHT22;6123;48.864;9.200;2022-08-11T05:52:44;18.90;99.90
12119;DHT22;6123;48.864;9.200;2022-08-11T05:55:29;19.00;99.90
12119;DHT22;6123;48.864;9.200;2022-08-11T05:58:14;19.10;99.90
12119;DHT22;6123;48.864;9.200;2022-08-11T06:00:44;19.20;99.90
12119;DHT22;6123;48.864;9.200;2022-08-11T06:03:19;19.10;99.90
12119;DHT22;6123;48.864;9.200;2022-08-11T06:05:47;19.20;99.90
12119;DHT22;6123;48.864;9.200;2022-08-11T06:08:13;19.30;99.90
12119;DHT22;6123;48.864;9.200;2022-08-11T06:10:42;19.50;99.90
12119;DHT22;6123;48.864;9.200;2022-08-11T06:13:09;19.30;99.90
12119;DHT22;6123;48.864;9.200;2022-08-11T06:15:45;19.40;99.90
12119;DHT22;6123;48.864;9.200;2022-08-11T06:18:12;19.60;99.90
12119;DHT22;6123;48.864;9.200;2022-08-11T06:20:49;19.60;99.90
12119;DHT22;6123;48.864;9.200;2022-08-11T06:23:16;19.90;99.90
12119;DHT22;6123;48.864;9.200;2022-08-11T06:25:44;19.70;99.90
12119;DHT22;6123;48.864;9.200;2022-08-11T06:28:11;19.80;99.90
12119;DHT22;6123;48.864;9.200;2022-08-11T06:30:41;20.00;99.90
12119;DHT22;6123;48.864;9.200;2022-08-11T06:33:18;20.30;99.90
12119;DHT22;6123;48.864;9.200;2022-08-11T06:36:20;20.10;99.90
12119;DHT22;6123;48.864;9.200;2022-08-11T06:41:51;20.20;99.90
12119;DHT22;6123;48.864;9.200;2022-08-11T06:44:30;20.50;99.90
12119;DHT22;6123;48.864;9.200;2022-08-11T06:47:06;20.60;99.90
12119;DHT22;6123;48.864;9.200;2022-08-11T06:49:41;20.80;99.90
12119;DHT22;6123;48.864;9.200;2022-08-11T06:52:35;21.10;99.90
12119;DHT22;6123;48.864;9.200;2022-08-11T06:55:27;21.00;99.90
12119;DHT22;6123;48.864;9.200;2022-08-11T06:58:21;21.20;99.90
12119;DHT22;6123;48.864;9.200;2022-08-11T07:01:13;21.40;99.90
12119;DHT22;6123;48.864;9.200;2022-08-11T07:03:44;21.30;99.90
12119;DHT22;6123;48.864;9.200;2022-08-11T07:09:23;21.60;99.90
12119;DHT22;6123;48.864;9.200;2022-08-11T07:15:08;21.80;99.90
12119;DHT22;6123;48.864;9.200;2022-08-11T07:17:58;21.80;99.90
12119;DHT22;6123;48.864;9.200;2022-08-11T07:20:44;22.00;99.90
12119;DHT22;6123;48.864;9.200;2022-08-11T07:23:33;22.30;99.90
12119;DHT22;6123;48.864;9.200;2022-08-11T07:26:23;22.50;99.50
12119;DHT22;6123;48.864;9.200;2022-08-11T07:29:11;22.50;99.20
12119;DHT22;6123;48.864;9.200;2022-08-11T07:31:42;22.50;99.40
12119;DHT22;6123;48.864;9.200;2022-08-11T07:36:56;22.80;98.80
12119;DHT22;6123;48.864;9.200;2022-08-11T07:39:28;23.10;98.30
12119;DHT22;6123;48.864;9.200;2022-08-11T07:41:59;23.20;97.70
12119;DHT22;6123;48.864;9.200;2022-08-11T07:44:30;23.30;97.80
12119;DHT22;6123;48.864;9.200;2022-08-11T07:46:56;23.40;97.30
12119;DHT22;6123;48.864;9.200;2022-08-11T07:49:44;23.60;97.10
12119;DHT22;6123;48.864;9.200;2022-08-11T07:52:33;23.50;97.30
12119;DHT22;6123;48.864;9.200;2022-08-11T07:55:11;23.60;96.90
12119;DHT22;6123;48.864;9.200;2022-08-11T07:57:38;23.70;96.70
12119;DHT22;6123;48.864;9.200;2022-08-11T08:00:23;23.80;96.40
12119;DHT22;6123;48.864;9.200;2022-08-11T08:03:08;24.10;96.10
12119;DHT22;6123;48.864;9.200;2022-08-11T08:05:53;24.10;95.20
12119;DHT22;6123;48.864;9.200;2022-08-11T08:08:39;24.20;95.00
12119;DHT22;6123;48.864;9.200;2022-08-11T08:11:25;24.40;94.40
12119;DHT22;6123;48.864;9.200;2022-08-11T08:14:10;24.50;93.60
12119;DHT22;6123;48.864;9.200;2022-08-11T08:16:56;24.50;93.70
12119;DHT22;6123;48.864;9.200;2022-08-11T08:19:42;24.80;93.10
12119;DHT22;6123;48.864;9.200;2022-08-11T08:22:15;25.00;93.10
12119;DHT22;6123;48.864;9.200;2022-08-11T08:24:42;25.10;92.60
12119;DHT22;6123;48.864;9.200;2022-08-11T08:27:09;25.10;92.20
12119;DHT22;6123;48.864;9.200;2022-08-11T08:29:40;25.30;91.60
12119;DHT22;6123;48.864;9.200;2022-08-11T08:32:27;25.20;91.00
12119;DHT22;6123;48.864;9.200;2022-08-11T08:34:54;25.40;90.60
12119;DHT22;6123;48.864;9.200;2022-08-11T08:37:25;25.50;90.40
12119;DHT22;6123;48.864;9.200;2022-08-11T08:39:57;25.50;89.30
12119;DHT22;6123;48.864;9.200;2022-08-11T08:42:28;25.50;88.00
12119;DHT22;6123;48.864;9.200;2022-08-11T08:45:04;25.70;88.70
12119;DHT22;6123;48.864;9.200;2022-08-11T08:47:35;25.90;89.90
12119;DHT22;6123;48.864;9.200;2022-08-11T08:50:09;25.90;88.80
12119;DHT22;6123;48.864;9.200;2022-08-11T08:52:38;26.00;86.80
12119;DHT22;6123;48.864;9.200;2022-08-11T08:55:11;26.20;86.00
12119;DHT22;6123;48.864;9.200;2022-08-11T08:57:48;25.80;84.60
12119;DHT22;6123;48.864;9.200;2022-08-11T09:00:15;26.10;85.30
12119;DHT22;6123;48.864;9.200;2022-08-11T09:02:42;26.30;84.00
12119;DHT22;6123;48.864;9.200;2022-08-11T09:05:08;26.30;83.80
12119;DHT22;6123;48.864;9.200;2022-08-11T09:07:35;26.40;83.10
12119;DHT22;6123;48.864;9.200;2022-08-11T09:10:04;26.60;83.60
12119;DHT22;6123;48.864;9.200;2022-08-11T09:12:31;26.60;81.20
12119;DHT22;6123;48.864;9.200;2022-08-11T09:14:59;26.50;80.10
12119;DHT22;6123;48.864;9.200;2022-08-11T09:17:30;26.40;79.30
12119;DHT22;6123;48.864;9.200;2022-08-11T09:20:11;26.60;80.30
12119;DHT22;6123;48.864;9.200;2022-08-11T09:22:41;26.70;80.40
12119;DHT22;6123;48.864;9.200;2022-08-11T09:25:29;26.70;78.30
12119;DHT22;6123;48.864;9.200;2022-08-11T09:28:20;26.60;77.50
12119;DHT22;6123;48.864;9.200;2022-08-11T09:30:49;26.80;77.90
12119;DHT22;6123;48.864;9.200;2022-08-11T09:33:20;27.10;78.50
12119;DHT22;6123;48.864;9.200;2022-08-11T09:35:48;27.10;74.80
12119;DHT22;6123;48.864;9.200;2022-08-11T09:38:16;27.00;75.00
12119;DHT22;6123;48.864;9.200;2022-08-11T09:41:03;26.90;75.80
12119;DHT22;6123;48.864;9.200;2022-08-11T09:43:34;26.90;75.70
12119;DHT22;6123;48.864;9.200;2022-08-11T09:46:29;27.00;75.30
12119;DHT22;6123;48.864;9.200;2022-08-11T09:49:00;27.30;75.00
12119;DHT22;6123;48.864;9.200;2022-08-11T09:51:30;27.40;75.20
12119;DHT22;6123;48.864;9.200;2022-08-11T09:53:57;27.60;73.70
12119;DHT22;6123;48.864;9.200;2022-08-11T09:56:24;27.50;72.60
12119;DHT22;6123;48.864;9.200;2022-08-11T09:59:09;27.50;73.20
12119;DHT22;6123;48.864;9.200;2022-08-11T10:01:44;27.70;72.50
12119;DHT22;6123;48.864;9.200;2022-08-11T10:06:37;27.70;72.10
12119;DHT22;6123;48.864;9.200;2022-08-11T10:09:27;27.60;71.30
12119;DHT22;6123;48.864;9.200;2022-08-11T10:11:57;27.60;71.40
12119;DHT22;6123;48.864;9.200;2022-08-11T10:14:24;27.80;69.80
12119;DHT22;6123;48.864;9.200;2022-08-11T10:17:09;27.90;69.20
12119;DHT22;6123;48.864;9.200;2022-08-11T10:19:36;27.80;70.40
12119;DHT22;6123;48.864;9.200;2022-08-11T10:22:08;27.80;69.50
12119;DHT22;6123;48.864;9.200;2022-08-11T10:24:52;28.00;69.90
12119;DHT22;6123;48.864;9.200;2022-08-11T10:27:42;27.90;69.50
12119;DHT22;6123;48.864;9.200;2022-08-11T10:30:08;28.00;68.70
12119;DHT22;6123;48.864;9.200;2022-08-11T10:32:53;28.20;68.60
12119;DHT22;6123;48.864;9.200;2022-08-11T10:35:40;28.00;68.60
12119;DHT22;6123;48.864;9.200;2022-08-11T10:38:06;28.20;68.40
12119;DHT22;6123;48.864;9.200;2022-08-11T10:40:33;28.30;67.70
12119;DHT22;6123;48.864;9.200;2022-08-11T10:43:01;28.50;66.60
12119;DHT22;6123;48.864;9.200;2022-08-11T10:45:36;28.60;66.30
12119;DHT22;6123;48.864;9.200;2022-08-11T10:48:28;28.70;66.40
12119;DHT22;6123;48.864;9.200;2022-08-11T10:50:55;28.80;65.70
12119;DHT22;6123;48.864;9.200;2022-08-11T10:53:50;28.70;64.50
12119;DHT22;6123;48.864;9.200;2022-08-11T10:56:37;28.60;64.40
12119;DHT22;6123;48.864;9.200;2022-08-11T10:59:23;28.80;65.00
12119;DHT22;6123;48.864;9.200;2022-08-11T11:01:52;29.00;63.40
12119;DHT22;6123;48.864;9.200;2022-08-11T11:04:37;28.70;63.30
12119;DHT22;6123;48.864;9.200;2022-08-11T11:07:08;28.90;63.90
12119;DHT22;6123;48.864;9.200;2022-08-11T11:12:20;29.10;62.30
12119;DHT22;6123;48.864;9.200;2022-08-11T11:15:07;29.10;61.90
12119;DHT22;6123;48.864;9.200;2022-08-11T11:18:24;29.20;62.10
12119;DHT22;6123;48.864;9.200;2022-08-11T11:20:57;29.40;60.10
12119;DHT22;6123;48.864;9.200;2022-08-11T11:37:15;29.80;59.50
12119;DHT22;6123;48.864;9.200;2022-08-11T11:39:44;30.20;59.10
12119;DHT22;6123;48.864;9.200;2022-08-11T11:42:10;30.10;58.80
12119;DHT22;6123;48.864;9.200;2022-08-11T11:44:37;30.50;58.30
12119;DHT22;6123;48.864;9.200;2022-08-11T11:47:04;30.90;57.50
12119;DHT22;6123;48.864;9.200;2022-08-11T11:49:32;31.30;57.60
12119;DHT22;6123;48.864;9.200;2022-08-11T11:52:02;31.40;55.90
12119;DHT22;6123;48.864;9.200;2022-08-11T11:54:30;31.50;55.40
12119;DHT22;6123;48.864;9.200;2022-08-11T11:56:57;31.00;55.80
12119;DHT22;6123;48.864;9.200;2022-08-11T11:59:44;30.90;56.20
12119;DHT22;6123;48.864;9.200;2022-08-11T12:02:29;31.10;56.20
12119;DHT22;6123;48.864;9.200;2022-08-11T12:04:54;31.50;55.30
12119;DHT22;6123;48.864;9.200;2022-08-11T12:07:22;31.50;55.30
12119;DHT22;6123;48.864;9.200;2022-08-11T12:10:07;31.80;54.70
12119;DHT22;6123;48.864;9.200;2022-08-11T12:12:33;32.20;53.80
12119;DHT22;6123;48.864;9.200;2022-08-11T12:15:18;32.60;53.10
12119;DHT22;6123;48.864;9.200;2022-08-11T12:17:47;32.30;52.20
12119;DHT22;6123;48.864;9.200;2022-08-11T12:20:16;32.00;53.00
12119;DHT22;6123;48.864;9.200;2022-08-11T12:22:46;32.00;52.50
12119;DHT22;6123;48.864;9.200;2022-08-11T12:25:31;32.20;52.50
12119;DHT22;6123;48.864;9.200;2022-08-11T12:28:16;32.60;52.50
12119;DHT22;6123;48.864;9.200;2022-08-11T12:30:42;33.00;52.50
12119;DHT22;6123;48.864;9.200;2022-08-11T12:33:12;33.10;51.60
12119;DHT22;6123;48.864;9.200;2022-08-11T12:35:39;32.90;52.40
12119;DHT22;6123;48.864;9.200;2022-08-11T12:38:06;32.90;51.80
12119;DHT22;6123;48.864;9.200;2022-08-11T12:40:36;32.80;51.50
12119;DHT22;6123;48.864;9.200;2022-08-11T12:43:23;33.00;51.40
12119;DHT22;6123;48.864;9.200;2022-08-11T12:46:18;33.00;50.90
12119;DHT22;6123;48.864;9.200;2022-08-11T12:48:46;32.90;50.10
12119;DHT22;6123;48.864;9.200;2022-08-11T12:51:34;32.80;51.40
12119;DHT22;6123;48.864;9.200;2022-08-11T12:57:11;32.60;50.90
12119;DHT22;6123;48.864;9.200;2022-08-11T12:59:56;33.10;50.60
12119;DHT22;6123;48.864;9.200;2022-08-11T13:02:41;33.00;49.90
12119;DHT22;6123;48.864;9.200;2022-08-11T13:05:27;32.70;49.20
12119;DHT22;6123;48.864;9.200;2022-08-11T13:07:53;32.90;48.00
12119;DHT22;6123;48.864;9.200;2022-08-11T13:10:22;33.20;47.90
12119;DHT22;6123;48.864;9.200;2022-08-11T13:13:07;33.20;47.90
12119;DHT22;6123;48.864;9.200;2022-08-11T13:15:34;33.10;47.80
12119;DHT22;6123;48.864;9.200;2022-08-11T13:18:04;33.20;47.60
12119;DHT22;6123;48.864;9.200;2022-08-11T13:20:33;33.00;47.70
12119;DHT22;6123;48.864;9.200;2022-08-11T13:23:00;33.00;47.50
12119;DHT22;6123;48.864;9.200;2022-08-11T13:25:29;32.80;47.30
12119;DHT22;6123;48.864;9.200;2022-08-11T13:27:57;32.80;47.30
12119;DHT22;6123;48.864;9.200;2022-08-11T13:30:28;32.60;47.60
12119;DHT22;6123;48.864;9.200;2022-08-11T13:33:14;32.80;47.50
12119;DHT22;6123;48.864;9.200;2022-08-11T13:35:44;32.60;48.10
12119;DHT22;6123;48.864;9.200;2022-08-11T13:38:10;32.70;47.60
12119;DHT22;6123;48.864;9.200;2022-08-11T13:40:38;33.30;47.50
12119;DHT22;6123;48.864;9.200;2022-08-11T13:43:05;33.50;46.30
12119;DHT22;6123;48.864;9.200;2022-08-11T13:45:32;33.20;45.90
12119;DHT22;6123;48.864;9.200;2022-08-11T13:47:59;33.20;45.80
12119;DHT22;6123;48.864;9.200;2022-08-11T13:50:26;33.40;46.60
12119;DHT22;6123;48.864;9.200;2022-08-11T13:53:11;33.20;45.70
12119;DHT22;6123;48.864;9.200;2022-08-11T13:55:40;33.10;46.80
12119;DHT22;6123;48.864;9.200;2022-08-11T13:58:09;33.60;46.50
12119;DHT22;6123;48.864;9.200;2022-08-11T14:00:35;33.60;45.60
12119;DHT22;6123;48.864;9.200;2022-08-11T14:03:05;33.60;44.90
12119;DHT22;6123;48.864;9.200;2022-08-11T14:05:40;33.60;45.40
12119;DHT22;6123;48.864;9.200;2022-08-11T14:08:11;33.10;44.50
12119;DHT22;6123;48.864;9.200;2022-08-11T14:10:38;32.90;44.70
12119;DHT22;6123;48.864;9.200;2022-08-11T14:13:13;33.10;44.90
12119;DHT22;6123;48.864;9.200;2022-08-11T14:16:02;33.10;44.10
12119;DHT22;6123;48.864;9.200;2022-08-11T14:18:30;32.90;44.70
12119;DHT22;6123;48.864;9.200;2022-08-11T14:20:59;33.10;44.80
12119;DHT22;6123;48.864;9.200;2022-08-11T14:23:52;33.10;44.10
12119;DHT22;6123;48.864;9.200;2022-08-11T14:26:22;33.10;43.80
12119;DHT22;6123;48.864;9.200;2022-08-11T14:28:49;33.40;44.20
12119;DHT22;6123;48.864;9.200;2022-08-11T14:31:18;33.80;43.30
12119;DHT22;6123;48.864;9.200;2022-08-11T14:33:44;34.10;44.20
12119;DHT22;6123;48.864;9.200;2022-08-11T14:36:10;34.10;44.00
12119;DHT22;6123;48.864;9.200;2022-08-11T14:38:38;33.90;44.10
12119;DHT22;6123;48.864;9.200;2022-08-11T14:41:07;34.10;43.80
12119;DHT22;6123;48.864;9.200;2022-08-11T14:43:54;34.20;44.10
12119;DHT22;6123;48.864;9.200;2022-08-11T14:46:40;34.20;43.70
12119;DHT22;6123;48.864;9.200;2022-08-11T14:49:27;33.90;43.40
12119;DHT22;6123;48.864;9.200;2022-08-11T14:51:53;33.50;43.30
12119;DHT22;6123;48.864;9.200;2022-08-11T14:54:29;33.70;43.80
12119;DHT22;6123;48.864;9.200;2022-08-11T14:57:15;33.80;43.70
12119;DHT22;6123;48.864;9.200;2022-08-11T14:59:45;33.90;43.60
12119;DHT22;6123;48.864;9.200;2022-08-11T15:02:13;33.40;43.40
12119;DHT22;6123;48.864;9.200;2022-08-11T15:04:59;33.00;43.20
12119;DHT22;6123;48.864;9.200;2022-08-11T15:07:27;32.90;43.70
12119;DHT22;6123;48.864;9.200;2022-08-11T15:09:58;33.20;43.50
12119;DHT22;6123;48.864;9.200;2022-08-11T15:12:24;33.40;43.50
12119;DHT22;6123;48.864;9.200;2022-08-11T15:14:52;33.50;43.70
12119;DHT22;6123;48.864;9.200;2022-08-11T15:17:38;33.60;43.50
12119;DHT22;6123;48.864;9.200;2022-08-11T15:20:11;33.80;43.00
12119;DHT22;6123;48.864;9.200;2022-08-11T15:22:56;34.10;43.30
12119;DHT22;6123;48.864;9.200;2022-08-11T15:25:45;33.40;42.60
12119;DHT22;6123;48.864;9.200;2022-08-11T15:28:17;33.50;43.30
12119;DHT22;6123;48.864;9.200;2022-08-11T15:31:03;33.80;43.20
12119;DHT22;6123;48.864;9.200;2022-08-11T15:34:10;33.90;43.10
12119;DHT22;6123;48.864;9.200;2022-08-11T15:36:57;33.80;42.50
12119;DHT22;6123;48.864;9.200;2022-08-11T15:39:50;33.60;43.20
12119;DHT22;6123;48.864;9.200;2022-08-11T15:42:56;33.60;43.10
12119;DHT22;6123;48.864;9.200;2022-08-11T15:45:43;33.60;42.00
12119;DHT22;6123;48.864;9.200;2022-08-11T15:48:43;33.80;42.40
12119;DHT22;6123;48.864;9.200;2022-08-11T15:51:18;33.70;42.60
12119;DHT22;6123;48.864;9.200;2022-08-11T15:53:52;33.50;42.50
12119;DHT22;6123;48.864;9.200;2022-08-11T15:56:21;32.90;43.40
12119;DHT22;6123;48.864;9.200;2022-08-11T15:58:49;33.20;43.20
12119;DHT22;6123;48.864;9.200;2022-08-11T16:01:36;33.10;43.40
12119;DHT22;6123;48.864;9.200;2022-08-11T16:04:24;33.50;43.20
12119;DHT22;6123;48.864;9.200;2022-08-11T16:07:15;33.30;42.70
12119;DHT22;6123;48.864;9.200;2022-08-11T16:09:50;33.20;43.10
12119;DHT22;6123;48.864;9.200;2022-08-11T16:12:24;33.00;43.10
12119;DHT22;6123;48.864;9.200;2022-08-11T16:14:57;33.20;43.00
12119;DHT22;6123;48.864;9.200;2022-08-11T16:17:50;33.30;43.50
12119;DHT22;6123;48.864;9.200;2022-08-11T16:20:19;33.50;43.40
12119;DHT22;6123;48.864;9.200;2022-08-11T16:22:48;33.60;42.90
12119;DHT22;6123;48.864;9.200;2022-08-11T16:25:17;33.50;42.60
12119;DHT22;6123;48.864;9.200;2022-08-11T16:27:50;33.20;42.40
12119;DHT22;6123;48.864;9.200;2022-08-11T16:30:16;33.00;43.00
12119;DHT22;6123;48.864;9.200;2022-08-11T16:32:48;32.90;42.70
12119;DHT22;6123;48.864;9.200;2022-08-11T16:35:24;32.80;43.20
12119;DHT22;6123;48.864;9.200;2022-08-11T16:38:09;33.10;43.30
12119;DHT22;6123;48.864;9.200;2022-08-11T16:40:55;33.10;42.80
12119;DHT22;6123;48.864;9.200;2022-08-11T16:43:24;33.50;43.10
12119;DHT22;6123;48.864;9.200;2022-08-11T16:46:14;33.20;42.50
12119;DHT22;6123;48.864;9.200;2022-08-11T16:49:01;33.50;42.60
12119;DHT22;6123;48.864;9.200;2022-08-11T16:51:29;34.00;42.90
12119;DHT22;6123;48.864;9.200;2022-08-11T16:53:55;34.20;42.00
12119;DHT22;6123;48.864;9.200;2022-08-11T16:56:27;34.40;42.40
12119;DHT22;6123;48.864;9.200;2022-08-11T16:58:56;34.00;42.10
12119;DHT22;6123;48.864;9.200;2022-08-11T17:01:45;34.00;42.30
12119;DHT22;6123;48.864;9.200;2022-08-11T17:07:25;33.50;42.20
12119;DHT22;6123;48.864;9.200;2022-08-11T17:10:36;34.30;42.30
12119;DHT22;6123;48.864;9.200;2022-08-11T17:13:21;34.60;42.20
12119;DHT22;6123;48.864;9.200;2022-08-11T17:15:49;34.90;41.80
12119;DHT22;6123;48.864;9.200;2022-08-11T17:18:34;35.00;41.50
12119;DHT22;6123;48.864;9.200;2022-08-11T17:23:41;36.00;41.10
12119;DHT22;6123;48.864;9.200;2022-08-11T17:26:27;36.00;41.20
12119;DHT22;6123;48.864;9.200;2022-08-11T17:29:14;35.00;41.50
12119;DHT22;6123;48.864;9.200;2022-08-11T17:31:44;35.20;42.00
12119;DHT22;6123;48.864;9.200;2022-08-11T17:34:29;34.40;42.20
12119;DHT22;6123;48.864;9.200;2022-08-11T17:37:14;34.70;42.30
12119;DHT22;6123;48.864;9.200;2022-08-11T17:39:41;34.70;42.30
12119;DHT22;6123;48.864;9.200;2022-08-11T17:42:08;35.10;42.40
12119;DHT22;6123;48.864;9.200;2022-08-11T17:44:53;35.30;42.10
12119;DHT22;6123;48.864;9.200;2022-08-11T17:47:38;35.30;41.80
12119;DHT22;6123;48.864;9.200;2022-08-11T17:50:23;34.90;41.90
12119;DHT22;6123;48.864;9.200;2022-08-11T17:52:50;33.30;42.20
12119;DHT22;6123;48.864;9.200;2022-08-11T17:55:37;32.10;43.30
12119;DHT22;6123;48.864;9.200;2022-08-11T17:58:22;31.70;44.30
12119;DHT22;6123;48.864;9.200;2022-08-11T18:01:09;31.30;44.70
12119;DHT22;6123;48.864;9.200;2022-08-11T18:03:39;30.80;45.10
12119;DHT22;6123;48.864;9.200;2022-08-11T18:06:07;30.50;45.90
12119;DHT22;6123;48.864;9.200;2022-08-11T18:08:37;30.20;46.10
12119;DHT22;6123;48.864;9.200;2022-08-11T18:11:23;30.10;47.10
12119;DHT22;6123;48.864;9.200;2022-08-11T18:14:11;29.80;46.80
12119;DHT22;6123;48.864;9.200;2022-08-11T18:16:56;29.50;46.80
12119;DHT22;6123;48.864;9.200;2022-08-11T18:19:43;29.30;47.50
12119;DHT22;6123;48.864;9.200;2022-08-11T18:22:30;29.20;48.00
12119;DHT22;6123;48.864;9.200;2022-08-11T18:25:30;29.10;47.40
12119;DHT22;6123;48.864;9.200;2022-08-11T18:28:22;28.80;47.40
12119;DHT22;6123;48.864;9.200;2022-08-11T18:31:10;28.70;47.40
12119;DHT22;6123;48.864;9.200;2022-08-11T18:34:00;28.60;48.00
12119;DHT22;6123;48.864;9.200;2022-08-11T18:37:00;28.30;48.10
12119;DHT22;6123;48.864;9.200;2022-08-11T18:39:48;28.20;48.60
12119;DHT22;6123;48.864;9.200;2022-08-11T18:42:33;28.00;48.50
12119;DHT22;6123;48.864;9.200;2022-08-11T18:45:20;27.90;48.70
12119;DHT22;6123;48.864;9.200;2022-08-11T18:48:10;27.70;49.30
12119;DHT22;6123;48.864;9.200;2022-08-11T18:50:57;27.60;49.00
12119;DHT22;6123;48.864;9.200;2022-08-11T18:53:46;27.40;49.40
12119;DHT22;6123;48.864;9.200;2022-08-11T18:56:32;27.20;49.60
12119;DHT22;6123;48.864;9.200;2022-08-11T18:59:19;27.10;49.80
12119;DHT22;6123;48.864;9.200;2022-08-11T19:02:05;27.00;50.00
12119;DHT22;6123;48.864;9.200;2022-08-11T19:04:49;26.80;50.20
12119;DHT22;6123;48.864;9.200;2022-08-11T19:07:36;26.60;51.00
12119;DHT22;6123;48.864;9.200;2022-08-11T19:10:21;26.60;50.70
12119;DHT22;6123;48.864;9.200;2022-08-11T19:13:09;26.40;51.00
12119;DHT22;6123;48.864;9.200;2022-08-11T19:15:54;26.30;51.30
12119;DHT22;6123;48.864;9.200;2022-08-11T19:18:40;26.20;51.20
12119;DHT22;6123;48.864;9.200;2022-08-11T19:21:27;26.10;51.60
12119;DHT22;6123;48.864;9.200;2022-08-11T19:24:12;26.10;51.30
12119;DHT22;6123;48.864;9.200;2022-08-11T19:26:58;26.00;51.90
12119;DHT22;6123;48.864;9.200;2022-08-11T19:29:43;25.70;52.70
12119;DHT22;6123;48.864;9.200;2022-08-11T19:32:28;25.60;52.20
12119;DHT22;6123;48.864;9.200;2022-08-11T19:35:13;25.60;52.40
12119;DHT22;6123;48.864;9.200;2022-08-11T19:37:59;25.50;52.50
12119;DHT22;6123;48.864;9.200;2022-08-11T19:40:49;25.30;53.00
12119;DHT22;6123;48.864;9.200;2022-08-11T19:43:37;25.20;52.70
12119;DHT22;6123;48.864;9.200;2022-08-11T19:46:24;25.00;53.90
12119;DHT22;6123;48.864;9.200;2022-08-11T19:49:09;24.90;53.80
12119;DHT22;6123;48.864;9.200;2022-08-11T19:51:55;24.90;53.80
12119;DHT22;6123;48.864;9.200;2022-08-11T19:54:41;26.60;55.00
12119;DHT22;6123;48.864;9.200;2022-08-11T19:57:28;24.80;53.60
12119;DHT22;6123;48.864;9.200;2022-08-11T20:00:18;24.70;53.70
12119;DHT22;6123;48.864;9.200;2022-08-11T20:03:09;24.60;54.00
12119;DHT22;6123;48.864;9.200;2022-08-11T20:05:55;24.50;53.80
12119;DHT22;6123;48.864;9.200;2022-08-11T20:08:42;24.40;54.00
12119;DHT22;6123;48.864;9.200;2022-08-11T20:11:32;24.30;54.60
12119;DHT22;6123;48.864;9.200;2022-08-11T20:14:19;24.20;54.80
12119;DHT22;6123;48.864;9.200;2022-08-11T20:17:06;24.20;54.90
12119;DHT22;6123;48.864;9.200;2022-08-11T20:19:54;24.10;55.00
12119;DHT22;6123;48.864;9.200;2022-08-11T20:22:39;24.00;55.20
12119;DHT22;6123;48.864;9.200;2022-08-11T20:25:25;23.80;55.30
12119;DHT22;6123;48.864;9.200;2022-08-11T20:28:12;23.60;55.80
12119;DHT22;6123;48.864;9.200;2022-08-11T20:30:57;23.60;56.10
12119;DHT22;6123;48.864;9.200;2022-08-11T20:33:42;23.60;56.60
12119;DHT22;6123;48.864;9.200;2022-08-11T20:36:29;23.60;56.10
12119;DHT22;6123;48.864;9.200;2022-08-11T20:39:15;23.60;57.20
12119;DHT22;6123;48.864;9.200;2022-08-11T20:42:00;23.50;57.10
12119;DHT22;6123;48.864;9.200;2022-08-11T20:44:46;23.30;57.70
12119;DHT22;6123;48.864;9.200;2022-08-11T20:47:33;23.30;57.30
12119;DHT22;6123;48.864;9.200;2022-08-11T20:50:18;23.30;57.60
12119;DHT22;6123;48.864;9.200;2022-08-11T20:53:04;23.20;57.50
12119;DHT22;6123;48.864;9.200;2022-08-11T20:55:48;23.00;58.20
12119;DHT22;6123;48.864;9.200;2022-08-11T20:58:33;23.30;58.30
12119;DHT22;6123;48.864;9.200;2022-08-11T21:01:18;23.30;58.50
12119;DHT22;6123;48.864;9.200;2022-08-11T21:04:04;22.90;59.50
12119;DHT22;6123;48.864;9.200;2022-08-11T21:06:50;22.70;61.10